Terminal Aerodrome Forecast
Issued by NWS

Home | Current Version | Previous Version | Text Only | Print | Product List | Glossary On
Versions: 1 2 3 4 5 6 7 8 9 10 11 12 13 14 15 16 17 18 19 20 21
800
FTUS46 KSEW 270535
TAFBLI
TAF
KBLI 270535Z 2706/2806 12006KT P6SM -SHRA SCT020 OVC035
      TEMPO 2706/2710 5SM -SHRA BR BKN020 OVC035
     FM271000 15008KT P6SM -SHRA OVC020
     FM271800 15010KT P6SM -SHRA OVC025
     FM272100 17010KT P6SM -SHRA SCT028 BKN035 OVC050
     FM280300 17004KT P6SM SCT035 BKN050=

USA.gov is the U.S. government's official web portal to all federal, state and local government web resources and services.